createdAt,value
2018-01-23T00:02:00.917Z,16.08
2018-01-23T00:04:28.338Z,16.45
2018-01-23T00:06:55.757Z,26.58
2018-01-23T00:09:23.319Z,24.27
2018-01-23T00:11:50.988Z,13.07
2018-01-23T00:14:18.437Z,24.92
2018-01-23T00:16:45.908Z,15.93
2018-01-23T00:19:13.317Z,20.70
2018-01-23T00:21:40.801Z,14.18
2018-01-23T00:24:08.362Z,22.73
2018-01-23T00:26:35.820Z,21.05
2018-01-23T00:29:03.281Z,16.67
2018-01-23T00:31:30.736Z,18.33
2018-01-23T00:33:58.157Z,12.48
2018-01-23T00:36:25.661Z,24.33
2018-01-23T00:38:53.081Z,12.10
2018-01-23T00:41:20.501Z,18.70
2018-01-23T00:43:47.924Z,27.37
2018-01-23T00:46:15.381Z,20.00
2018-01-23T00:48:42.804Z,29.65
2018-01-23T00:51:11.017Z,16.58
2018-01-23T00:53:38.432Z,9.88
2018-01-23T00:56:05.932Z,17.58
2018-01-23T00:58:33.393Z,26.42
2018-01-23T01:01:00.833Z,16.45
2018-01-23T01:03:28.309Z,18.10
2018-01-23T01:05:55.737Z,19.27
2018-01-23T01:08:23.227Z,22.10
2018-01-23T01:10:50.676Z,16.25
2018-01-23T01:13:18.141Z,26.12
2018-01-23T01:15:45.564Z,45.33
2018-01-23T01:18:13.053Z,30.27
2018-01-23T01:20:40.472Z,16.83
2018-01-23T01:23:07.978Z,10.52
2018-01-23T01:25:35.417Z,23.23
2018-01-23T01:28:02.889Z,21.58
2018-01-23T01:30:30.317Z,13.10
2018-01-23T01:32:57.736Z,13.90
2018-01-23T01:35:25.261Z,17.70
2018-01-23T01:37:52.676Z,27.65
2018-01-23T01:40:20.097Z,15.73
2018-01-23T01:42:47.531Z,20.67
2018-01-23T01:45:15.287Z,18.17
2018-01-23T01:47:42.862Z,12.10
2018-01-23T01:50:10.320Z,19.50
2018-01-23T01:52:37.741Z,19.85
2018-01-23T01:55:05.166Z,17.25
2018-01-23T01:57:32.690Z,17.15
2018-01-23T02:00:00.110Z,16.52
2018-01-23T02:02:27.534Z,17.60
2018-01-23T02:04:54.956Z,15.57
2018-01-23T02:07:22.523Z,16.40
2018-01-23T02:09:50.158Z,12.57
2018-01-23T02:12:17.745Z,14.10
2018-01-23T02:14:45.177Z,17.80
2018-01-23T02:17:12.597Z,21.02
2018-01-23T02:19:40.017Z,26.40
2018-01-23T02:22:07.581Z,22.05
2018-01-23T02:24:35.037Z,9.80
2018-01-23T02:27:02.634Z,24.15
2018-01-23T02:29:30.833Z,20.33
2018-01-23T02:31:58.262Z,17.58
2018-01-23T02:34:25.694Z,19.23
2018-01-23T02:36:53.131Z,17.87
2018-01-23T02:39:20.701Z,13.23
2018-01-23T02:41:48.122Z,14.48
2018-01-23T02:44:15.545Z,16.42
2018-01-23T02:46:42.984Z,14.65
2018-01-23T02:49:10.662Z,22.00
2018-01-23T02:51:38.301Z,26.73
2018-01-23T02:54:06.074Z,13.90
2018-01-23T02:56:33.832Z,30.73
2018-01-23T02:59:01.258Z,11.73
2018-01-23T03:01:28.753Z,13.88
2018-01-23T03:03:56.201Z,13.82
2018-01-23T03:06:23.666Z,14.65
2018-01-23T03:08:51.430Z,25.40
2018-01-23T03:11:19.061Z,12.30
2018-01-23T03:13:46.649Z,25.40
2018-01-23T03:16:14.109Z,18.20
2018-01-23T03:18:41.758Z,22.23
2018-01-23T03:21:09.331Z,22.55
2018-01-23T03:23:36.793Z,18.08
2018-01-23T03:26:04.246Z,12.00
2018-01-23T03:28:31.705Z,22.70
2018-01-23T03:30:59.134Z,15.77
2018-01-23T03:33:26.555Z,16.15
2018-01-23T03:35:53.978Z,18.12
2018-01-23T03:38:21.541Z,16.73
2018-01-23T03:40:49.302Z,22.08
2018-01-23T03:43:16.745Z,30.67
2018-01-23T03:45:44.171Z,19.52
2018-01-23T03:48:11.610Z,18.23
2018-01-23T03:50:39.128Z,14.18
2018-01-23T03:53:06.577Z,18.62
2018-01-23T03:55:34.054Z,18.90
2018-01-23T03:58:01.494Z,19.83
2018-01-23T04:00:28.920Z,25.00
2018-01-23T04:02:56.614Z,20.55
2018-01-23T04:05:24.185Z,24.15
2018-01-23T04:07:51.649Z,22.50
2018-01-23T04:10:19.409Z,20.67
2018-01-23T04:12:46.833Z,22.95
2018-01-23T04:15:15.833Z,24.45
2018-01-23T04:17:43.261Z,19.73
2018-01-23T04:20:10.786Z,23.15
2018-01-23T04:22:38.409Z,21.40
2018-01-23T04:25:05.896Z,18.30
2018-01-23T04:27:33.461Z,14.02
2018-01-23T04:30:00.890Z,24.55
2018-01-23T04:32:28.323Z,13.30
2018-01-23T04:34:55.832Z,21.60
2018-01-23T04:37:23.605Z,25.95
2018-01-23T04:39:51.235Z,19.42
2018-01-23T04:42:18.825Z,31.98
2018-01-23T04:44:46.250Z,16.98
2018-01-23T04:47:13.733Z,17.45
2018-01-23T04:49:41.165Z,22.70
2018-01-23T04:52:08.577Z,23.33
2018-01-23T04:54:36.006Z,19.55
2018-01-23T04:57:03.560Z,21.90
2018-01-23T04:59:30.992Z,23.60
2018-01-23T05:01:58.418Z,15.07
2018-01-23T05:04:25.841Z,21.90
2018-01-23T05:06:53.262Z,14.38
2018-01-23T05:09:20.702Z,15.57
2018-01-23T05:11:49.101Z,15.15
2018-01-23T05:14:16.605Z,17.40
2018-01-23T05:16:44.025Z,17.02
2018-01-23T05:19:11.521Z,23.73
2018-01-23T05:21:38.953Z,21.23
2018-01-23T05:24:06.399Z,14.00
2018-01-23T05:26:33.890Z,24.75
2018-01-23T05:29:01.445Z,28.12
2018-01-23T05:31:29.207Z,14.65
2018-01-23T05:33:56.637Z,16.50
2018-01-23T05:36:24.057Z,14.35
2018-01-23T05:38:51.573Z,15.07
2018-01-23T05:41:19.027Z,14.87
2018-01-23T05:43:46.690Z,24.10
2018-01-23T05:46:14.161Z,22.42
2018-01-23T05:48:41.911Z,32.83
2018-01-23T05:51:09.387Z,23.38
2018-01-23T05:53:36.814Z,22.25
2018-01-23T05:56:04.240Z,17.52
2018-01-23T05:58:32.434Z,18.10
2018-01-23T06:00:59.852Z,17.33
2018-01-23T06:03:27.272Z,30.27
2018-01-23T06:05:54.777Z,17.75
2018-01-23T06:08:22.282Z,17.40
2018-01-23T06:10:49.706Z,21.98
2018-01-23T06:13:17.213Z,16.67
2018-01-23T06:15:44.985Z,20.50
2018-01-23T06:18:12.617Z,20.37
2018-01-23T06:20:40.105Z,15.32
2018-01-23T06:23:07.590Z,13.20
2018-01-23T06:25:35.037Z,16.62
2018-01-23T06:28:02.586Z,20.08
2018-01-23T06:30:30.277Z,19.80
2018-01-23T06:32:57.710Z,17.77
2018-01-23T06:35:25.147Z,18.87
2018-01-23T06:37:52.622Z,22.77
2018-01-23T06:40:20.093Z,26.10
2018-01-23T06:42:47.633Z,16.55
2018-01-23T06:45:15.382Z,22.33
2018-01-23T06:47:42.863Z,22.65
2018-01-23T06:50:10.321Z,16.62
2018-01-23T06:52:37.945Z,31.45
2018-01-23T06:55:05.542Z,20.73
2018-01-23T06:57:32.992Z,15.98
2018-01-23T07:00:00.422Z,20.35
2018-01-23T07:02:27.846Z,20.02
2018-01-23T07:04:56.033Z,16.08
2018-01-23T07:07:23.618Z,13.93
2018-01-23T07:09:51.116Z,31.67
2018-01-23T07:12:18.573Z,28.05
2018-01-23T07:14:46.125Z,27.23
2018-01-23T07:17:13.757Z,43.65
2018-01-23T07:19:41.214Z,19.67
2018-01-23T07:22:08.807Z,25.90
2018-01-23T07:24:36.257Z,24.02
2018-01-23T07:27:03.685Z,16.87
2018-01-23T07:29:31.179Z,22.67
2018-01-23T07:31:58.809Z,17.45
2018-01-23T07:34:26.309Z,14.93
2018-01-23T07:36:53.765Z,27.13
2018-01-23T07:39:21.220Z,20.02
2018-01-23T07:41:48.660Z,18.65
2018-01-23T07:44:16.174Z,19.52
2018-01-23T07:46:43.606Z,26.48
2018-01-23T07:49:11.034Z,19.70
2018-01-23T07:51:38.453Z,24.65
2018-01-23T07:54:06.673Z,32.58
2018-01-23T07:56:34.447Z,24.00
2018-01-23T07:59:01.874Z,17.83
2018-01-23T08:01:29.314Z,24.73
2018-01-23T08:03:56.737Z,23.48
2018-01-23T08:06:24.294Z,20.58
2018-01-23T08:08:51.906Z,18.02
2018-01-23T08:11:19.419Z,18.83
2018-01-23T08:13:46.953Z,20.20
2018-01-23T08:16:14.414Z,23.40
2018-01-23T08:18:42.045Z,20.85
2018-01-23T08:21:09.634Z,28.27
2018-01-23T08:23:37.170Z,24.67
2018-01-23T08:26:04.642Z,23.35
2018-01-23T08:28:32.222Z,21.87
2018-01-23T08:30:59.650Z,13.85
2018-01-23T08:33:27.237Z,18.58
2018-01-23T08:35:54.881Z,16.70
2018-01-23T08:38:22.454Z,21.40
2018-01-23T08:40:49.973Z,21.60
2018-01-23T08:43:17.578Z,23.65
2018-01-23T08:45:44.997Z,24.83
2018-01-23T08:48:12.594Z,23.40
2018-01-23T08:50:40.354Z,35.47
2018-01-23T08:53:07.810Z,20.00
2018-01-23T08:55:35.238Z,16.50
2018-01-23T08:58:02.729Z,21.40
2018-01-23T09:00:30.506Z,23.55
2018-01-23T09:02:57.929Z,26.65
2018-01-23T09:05:25.406Z,18.05
2018-01-23T09:07:52.829Z,21.40
2018-01-23T09:10:20.330Z,20.33
2018-01-23T09:12:47.952Z,19.40
2018-01-23T09:15:16.137Z,13.93
2018-01-23T09:17:43.623Z,17.08
2018-01-23T09:20:11.054Z,17.85
2018-01-23T09:22:38.534Z,15.80
2018-01-23T09:25:05.961Z,37.47
2018-01-23T09:27:33.399Z,34.03
2018-01-23T09:30:00.927Z,16.12
2018-01-23T09:32:28.346Z,12.07
2018-01-23T09:34:55.766Z,15.40
2018-01-23T09:37:23.285Z,17.65
2018-01-23T09:39:50.709Z,24.35
2018-01-23T09:42:18.145Z,26.08
2018-01-23T09:44:45.661Z,13.20
2018-01-23T09:47:13.089Z,19.55
2018-01-23T09:49:40.516Z,16.42
2018-01-23T09:52:07.933Z,14.95
2018-01-23T09:54:35.385Z,19.85
2018-01-23T09:57:02.835Z,19.25
2018-01-23T09:59:30.308Z,29.12
2018-01-23T10:01:57.774Z,25.83
2018-01-23T10:04:25.320Z,21.12
2018-01-23T10:06:52.749Z,13.35
2018-01-23T10:09:20.174Z,27.40
2018-01-23T10:11:47.701Z,14.48
2018-01-23T10:14:15.153Z,20.35
2018-01-23T10:16:42.614Z,12.45
2018-01-23T10:19:10.073Z,14.57
2018-01-23T10:21:37.494Z,13.73
2018-01-23T10:24:04.920Z,25.12
2018-01-23T10:26:32.345Z,11.50
2018-01-23T10:28:59.903Z,20.45
2018-01-23T10:31:27.333Z,17.15
2018-01-23T10:33:54.749Z,24.20
2018-01-23T10:36:22.173Z,21.27
2018-01-23T10:38:49.602Z,17.37
2018-01-23T10:41:17.057Z,14.15
2018-01-23T10:43:44.481Z,19.42
2018-01-23T10:46:12.105Z,19.55
2018-01-23T10:48:39.726Z,15.75
2018-01-23T10:51:08.129Z,14.57
2018-01-23T10:53:35.649Z,23.25
2018-01-23T10:56:03.234Z,10.13
2018-01-23T10:58:30.929Z,10.82
2018-01-23T11:01:03.902Z,16.55
2018-01-23T11:03:31.329Z,8.80
2018-01-23T11:05:59.516Z,15.35
2018-01-23T11:08:26.962Z,15.40
2018-01-23T11:10:54.566Z,14.70
2018-01-23T11:13:22.128Z,13.18
2018-01-23T11:15:49.589Z,23.62
2018-01-23T11:18:17.217Z,10.77
2018-01-23T11:20:44.711Z,8.75
2018-01-23T11:23:12.206Z,47.45
2018-01-23T11:25:39.726Z,9.20
2018-01-23T11:28:07.159Z,9.68
2018-01-23T11:30:34.643Z,15.35
2018-01-23T11:33:02.405Z,17.70
2018-01-23T11:35:29.837Z,4.55
2018-01-23T11:37:57.261Z,9.00
2018-01-23T11:40:24.685Z,5.78
2018-01-23T11:42:52.133Z,4.25
2018-01-23T11:45:19.598Z,8.73
2018-01-23T11:47:47.149Z,7.75
2018-01-23T11:50:14.575Z,6.57
2018-01-23T11:52:42.069Z,5.50
2018-01-23T11:55:09.532Z,9.13
2018-01-23T11:57:36.984Z,10.18
2018-01-23T12:00:04.409Z,10.73
2018-01-23T12:02:31.833Z,5.18
2018-01-23T12:04:59.390Z,11.70
2018-01-23T12:07:26.813Z,4.40
2018-01-23T12:09:54.245Z,11.65
2018-01-23T12:12:21.925Z,8.43
2018-01-23T12:14:49.495Z,8.45
2018-01-23T12:17:17.129Z,12.50
2018-01-23T12:19:44.718Z,12.75
2018-01-23T12:22:12.353Z,10.20
2018-01-23T12:24:39.954Z,10.90
2018-01-23T12:27:07.571Z,12.88
2018-01-23T12:29:35.049Z,5.80
2018-01-23T12:32:02.638Z,4.28
2018-01-23T12:34:30.387Z,3.50
2018-01-23T12:36:58.012Z,12.23
2018-01-23T12:39:25.457Z,9.25
2018-01-23T12:41:53.678Z,3.75
2018-01-23T12:44:21.101Z,9.70
2018-01-23T12:46:48.535Z,16.15
2018-01-23T12:49:15.957Z,14.75
2018-01-23T12:51:43.519Z,10.13
2018-01-23T12:54:10.945Z,4.28
2018-01-23T12:56:38.438Z,11.60
2018-01-23T12:59:06.065Z,2.67
2018-01-23T13:01:33.520Z,6.03
2018-01-23T13:04:01.123Z,6.32
2018-01-23T13:06:28.752Z,5.50
2018-01-23T13:08:56.340Z,14.45
2018-01-23T13:11:23.797Z,5.05
2018-01-23T13:13:51.558Z,7.32
2018-01-23T13:16:19.013Z,4.10
2018-01-23T13:18:46.652Z,11.90
2018-01-23T13:21:14.161Z,22.45
2018-01-23T13:23:41.702Z,15.65
2018-01-23T13:26:09.457Z,7.57
2018-01-23T13:28:37.224Z,6.80
2018-01-23T13:31:04.671Z,13.82
2018-01-23T13:33:32.102Z,7.80
2018-01-23T13:35:59.606Z,7.72
2018-01-23T13:38:27.234Z,5.28
2018-01-23T13:40:54.695Z,7.07
2018-01-23T13:43:22.186Z,6.03
2018-01-23T13:45:49.734Z,6.82
2018-01-23T13:48:17.229Z,6.47
2018-01-23T13:50:44.675Z,6.78
2018-01-23T13:53:12.417Z,9.75
2018-01-23T13:55:40.069Z,9.13
2018-01-23T13:58:07.484Z,6.03
2018-01-23T14:00:35.690Z,9.18
2018-01-23T14:03:03.117Z,5.53
2018-01-23T14:05:30.561Z,4.18
2018-01-23T14:07:58.098Z,10.57
2018-01-23T14:10:25.554Z,5.87
2018-01-23T14:12:53.005Z,8.57
2018-01-23T14:15:20.468Z,4.43
2018-01-23T14:17:47.919Z,9.32
2018-01-23T14:20:15.392Z,9.93
2018-01-23T14:22:42.806Z,8.98
2018-01-23T14:25:10.229Z,6.82
2018-01-23T14:27:38.673Z,4.95
2018-01-23T14:30:06.133Z,22.45
2018-01-23T14:32:33.585Z,6.62
2018-01-23T14:35:01.027Z,14.93
2018-01-23T14:37:28.450Z,10.55
2018-01-23T14:39:56.013Z,7.53
2018-01-23T14:42:23.752Z,6.75
2018-01-23T14:44:51.490Z,4.87
2018-01-23T14:47:18.945Z,7.43
2018-01-23T14:49:46.581Z,4.45
2018-01-23T14:52:14.073Z,19.15
2018-01-23T14:54:41.499Z,4.18
2018-01-23T14:57:08.990Z,7.45
2018-01-23T14:59:36.450Z,13.27
2018-01-23T15:02:03.935Z,2.95
2018-01-23T15:04:31.357Z,6.62
2018-01-23T15:06:58.823Z,7.05
2018-01-23T15:09:26.404Z,5.60
2018-01-23T15:11:54.089Z,6.50
2018-01-23T15:14:21.513Z,5.18
2018-01-23T15:16:49.052Z,9.75
2018-01-23T15:19:16.493Z,11.90
2018-01-23T15:21:43.924Z,11.23
2018-01-23T15:24:11.348Z,6.93
2018-01-23T15:26:38.807Z,7.68
2018-01-23T15:29:06.377Z,7.82
2018-01-23T15:31:34.108Z,9.57
2018-01-23T15:34:01.574Z,15.45
2018-01-23T15:36:29.222Z,4.25
2018-01-23T15:38:56.798Z,4.72
2018-01-23T15:41:24.220Z,7.85
2018-01-23T15:43:51.708Z,12.65
2018-01-23T15:46:19.141Z,21.52
2018-01-23T15:48:46.630Z,3.95
2018-01-23T15:51:14.093Z,4.97
2018-01-23T15:53:41.502Z,5.90
2018-01-23T15:56:08.939Z,6.43
2018-01-23T15:58:36.466Z,4.40
2018-01-23T16:01:03.890Z,10.05
2018-01-23T16:03:31.316Z,5.97
2018-01-23T16:05:58.820Z,10.15
2018-01-23T16:08:26.241Z,6.78
2018-01-23T16:10:53.941Z,5.10
2018-01-23T16:13:21.410Z,5.82
2018-01-23T16:15:48.870Z,2.42
2018-01-23T16:18:16.292Z,5.95
2018-01-23T16:20:43.810Z,8.25
2018-01-23T16:23:11.240Z,5.95
2018-01-23T16:25:38.734Z,13.20
2018-01-23T16:28:06.161Z,14.63
2018-01-23T16:30:33.713Z,12.27
2018-01-23T16:33:01.363Z,15.45
2018-01-23T16:35:28.801Z,3.92
2018-01-23T16:37:56.393Z,5.90
2018-01-23T16:40:23.817Z,8.13
2018-01-23T16:42:51.257Z,10.07
2018-01-23T16:45:18.773Z,4.57
2018-01-23T16:47:46.420Z,14.70
2018-01-23T16:50:13.922Z,9.52
2018-01-23T16:52:41.365Z,13.68
2018-01-23T16:55:08.791Z,8.73
2018-01-23T16:57:36.297Z,12.02
2018-01-23T17:00:04.489Z,20.20
2018-01-23T17:02:31.914Z,7.78
2018-01-23T17:04:59.353Z,4.72
2018-01-23T17:07:26.986Z,3.28
2018-01-23T17:09:54.479Z,6.43
2018-01-23T17:12:21.938Z,6.35
2018-01-23T17:14:49.405Z,4.60
2018-01-23T17:17:16.955Z,16.73
2018-01-23T17:19:44.415Z,4.62
2018-01-23T17:22:11.843Z,14.23
2018-01-23T17:24:39.265Z,4.72
2018-01-23T17:27:06.786Z,2.85
2018-01-23T17:29:34.550Z,3.58
2018-01-23T17:32:01.979Z,3.25
2018-01-23T17:34:29.401Z,10.98
2018-01-23T17:36:56.827Z,5.37
2018-01-23T17:39:24.357Z,5.43
2018-01-23T17:41:51.802Z,5.10
2018-01-23T17:44:19.301Z,5.78
2018-01-23T17:46:46.726Z,1.87
2018-01-23T17:49:14.162Z,19.62
2018-01-23T17:51:41.585Z,5.75
2018-01-23T17:54:09.012Z,3.25
2018-01-23T17:56:36.481Z,5.78
2018-01-23T17:59:04.041Z,4.50
2018-01-23T18:01:31.805Z,3.67
2018-01-23T18:03:59.250Z,5.45
2018-01-23T18:06:26.665Z,5.62
2018-01-23T18:08:54.177Z,5.25
2018-01-23T18:11:21.637Z,5.07
2018-01-23T18:13:49.298Z,18.17
2018-01-23T18:16:16.863Z,2.28
2018-01-23T18:18:44.501Z,9.95
2018-01-23T18:21:11.929Z,5.00
2018-01-23T18:23:40.152Z,7.43
2018-01-23T18:26:07.773Z,6.03
2018-01-23T18:28:36.298Z,4.97
2018-01-23T18:31:03.970Z,7.93
2018-01-23T18:33:31.530Z,5.35
2018-01-23T18:35:59.153Z,4.12
2018-01-23T18:38:26.677Z,3.53
2018-01-23T18:40:54.345Z,8.32
2018-01-23T18:43:22.046Z,8.32
2018-01-23T18:45:49.733Z,3.60
2018-01-23T18:48:17.205Z,6.20
2018-01-23T18:50:44.629Z,2.58
2018-01-23T18:53:12.054Z,10.70
2018-01-23T18:55:39.482Z,8.38
2018-01-23T18:58:07.031Z,11.70
2018-01-23T19:00:34.480Z,7.12
2018-01-23T19:03:02.347Z,8.73
2018-01-23T19:05:29.877Z,9.70
2018-01-23T19:07:57.341Z,4.30
2018-01-23T19:10:24.934Z,7.30
2018-01-23T19:12:52.716Z,5.45
2018-01-23T19:15:20.153Z,4.50
2018-01-23T19:17:47.924Z,3.78
2018-01-23T19:20:15.729Z,9.40
2018-01-23T19:22:43.435Z,8.85
2018-01-23T19:25:10.901Z,10.98
2018-01-23T19:27:38.357Z,5.87
2018-01-23T19:30:05.789Z,7.62
2018-01-23T19:32:33.213Z,6.05
2018-01-23T19:35:00.745Z,5.57
2018-01-23T19:37:28.161Z,5.00
2018-01-23T19:39:55.593Z,9.30
2018-01-23T19:42:23.113Z,6.37
2018-01-23T19:44:50.758Z,7.55
2018-01-23T19:47:18.233Z,7.68
2018-01-23T19:49:45.794Z,6.07
2018-01-23T19:52:13.217Z,8.63
2018-01-23T19:54:40.709Z,5.55
2018-01-23T19:57:08.473Z,4.10
2018-01-23T19:59:36.101Z,14.55
2018-01-23T20:02:03.692Z,9.15
2018-01-23T20:04:31.149Z,3.53
2018-01-23T20:06:58.921Z,12.70
2018-01-23T20:09:26.348Z,10.95
2018-01-23T20:11:53.771Z,20.15
2018-01-23T20:14:21.198Z,12.93
2018-01-23T20:16:48.752Z,13.07
2018-01-23T20:19:16.182Z,15.70
2018-01-23T20:21:43.670Z,9.20
2018-01-23T20:24:11.127Z,7.00
2018-01-23T20:26:38.762Z,15.38
2018-01-23T20:29:06.349Z,14.98
2018-01-23T20:31:33.801Z,8.85
2018-01-23T20:34:01.230Z,10.10
2018-01-23T20:36:28.657Z,10.60
2018-01-23T20:38:56.176Z,11.95
2018-01-23T20:41:23.805Z,12.15
2018-01-23T20:43:51.329Z,5.62
2018-01-23T20:46:18.857Z,9.32
2018-01-23T20:48:46.621Z,13.55
2018-01-23T20:51:14.280Z,7.68
2018-01-23T20:53:41.856Z,14.90
2018-01-23T20:56:09.494Z,5.90
2018-01-23T20:58:36.974Z,7.90
2018-01-23T21:01:04.524Z,11.25
2018-01-23T21:03:32.302Z,14.68
2018-01-23T21:05:59.741Z,17.70
2018-01-23T21:08:27.174Z,10.80
2018-01-23T21:10:54.601Z,12.15
2018-01-23T21:13:22.026Z,8.73
2018-01-23T21:15:49.477Z,5.93
2018-01-23T21:18:16.949Z,8.68
2018-01-23T21:20:44.397Z,10.73
2018-01-23T21:23:11.822Z,5.15
2018-01-23T21:25:39.317Z,10.23
2018-01-23T21:28:06.754Z,11.57
2018-01-23T21:30:34.229Z,11.27
2018-01-23T21:33:01.657Z,8.50
2018-01-23T21:35:29.250Z,10.40
2018-01-23T21:37:56.877Z,7.93
2018-01-23T21:40:24.478Z,14.30
2018-01-23T21:42:52.107Z,8.65
2018-01-23T21:45:19.698Z,5.82
2018-01-23T21:47:47.456Z,12.73
2018-01-23T21:50:14.890Z,9.15
2018-01-23T21:52:42.322Z,7.40
2018-01-23T21:55:09.754Z,21.10
2018-01-23T21:57:37.186Z,7.12
2018-01-23T22:00:04.709Z,6.57
2018-01-23T22:02:32.135Z,7.07
2018-01-23T22:04:59.571Z,4.05
2018-01-23T22:07:27.030Z,6.10
2018-01-23T22:09:54.581Z,4.95
2018-01-23T22:12:22.001Z,8.15
2018-01-23T22:14:49.426Z,7.30
2018-01-23T22:17:16.853Z,5.40
2018-01-23T22:19:44.325Z,12.40
2018-01-23T22:22:11.760Z,17.05
2018-01-23T22:24:39.325Z,8.43
2018-01-23T22:27:06.770Z,7.50
2018-01-23T22:29:34.194Z,6.90
2018-01-23T22:32:01.701Z,9.43
2018-01-23T22:34:29.469Z,6.97
2018-01-23T22:36:57.229Z,9.32
2018-01-23T22:39:24.695Z,5.37
2018-01-23T22:41:52.449Z,7.95
2018-01-23T22:44:19.910Z,4.35
2018-01-23T22:46:47.564Z,7.45
2018-01-23T22:49:15.005Z,13.73
2018-01-23T22:51:42.425Z,7.00
2018-01-23T22:54:10.049Z,6.25
2018-01-23T22:56:37.685Z,4.55
2018-01-23T22:59:05.277Z,6.22
2018-01-23T23:01:33.046Z,4.45
2018-01-23T23:04:00.501Z,9.30
2018-01-23T23:06:27.920Z,6.80
2018-01-23T23:08:55.352Z,5.35
2018-01-23T23:11:22.781Z,5.00
2018-01-23T23:13:50.262Z,4.90
2018-01-23T23:16:17.694Z,8.68
2018-01-23T23:18:45.145Z,5.53
2018-01-23T23:21:12.601Z,8.15
2018-01-23T23:23:40.095Z,6.97
2018-01-23T23:26:07.516Z,5.37
2018-01-23T23:28:35.072Z,4.30
2018-01-23T23:31:02.713Z,5.65
2018-01-23T23:33:30.202Z,6.70
2018-01-23T23:35:57.761Z,6.72
2018-01-23T23:38:25.185Z,4.30
2018-01-23T23:40:52.605Z,6.75
2018-01-23T23:43:20.130Z,4.40
2018-01-23T23:45:47.561Z,5.10
2018-01-23T23:48:14.992Z,5.30
2018-01-23T23:50:42.505Z,12.82
2018-01-23T23:53:09.945Z,12.18
2018-01-23T23:55:37.373Z,6.78
2018-01-23T23:58:05.578Z,4.97
